• Join FlightAware (Why Join?)
  • Login
  • US Flag 
11:23AM EDT


 

Airport Tracker/Info


-or-


 

Live Flight TrackerFlight Track Log ✈ XOJ552 ✈ 12-Oct-2013 ✈ KDAL - KGSO

Flight Track Log - Related Links

Times and Time Zones

All times are in EDT time to prevent confusion due to time zone crossing. See the XOJ552 flight status page for this flight to view local times or setup timezone preferences in your user account.

Time Position Orientation Groundspeed Altitude Reporting Facility
EDT Latitude Longitude Course Direction KTS MPH feet Rate Location/Type
05:40PM 32.8333 -96.8333 121° Southeast 164 189 1,800  Level Dallas / Fort Worth TRACON
05:40PM 32.8167 -96.8000 121° Southeast 197 227 3,500 3,420 Climbing Dallas / Fort Worth TRACON
05:41PM 32.7833 -96.7333 121° Southeast 264 304 7,300 3,720 Climbing Dallas / Fort Worth TRACON
05:42PM 32.8333 -96.7000 29° Northeast 275 316 11,000 2,640 Climbing Dallas / Fort Worth TRACON
05:45PM 32.9908 -96.8561 320° Northwest 308 354 16,300 1,740 Climbing Fort Worth Center
05:46PM 33.0742 -96.8333 13° North 289 333 17,000 1,680 Climbing Fort Worth Center
05:47PM 33.1719 -96.7756 26° Northeast 320 368 19,700 2,400 Climbing Fort Worth Center
05:48PM 33.2594 -96.7056 34° Northeast 355 409 21,900 2,520 Climbing Fort Worth Center
05:49PM 33.3569 -96.6200 36° Northeast 400 460 24,800 2,700 Climbing Fort Worth Center
05:50PM 33.4544 -96.5419 34° Northeast 414 476 27,400 2,400 Climbing Fort Worth Center
05:51PM 33.5561 -96.4564 35° Northeast 426 490 29,700 2,160 Climbing Fort Worth Center
05:52PM 33.6578 -96.3728 34° Northeast 433 498 31,800 1,860 Climbing Fort Worth Center
05:53PM 33.7656 -96.2817 35° Northeast 454 522 33,500 1,680 Climbing Fort Worth Center
05:54PM 33.8731 -96.1903 35° Northeast 466 536 35,300 1,620 Climbing Fort Worth Center
05:55PM 33.9850 -96.0958 35° Northeast 471 542 36,800 1,260 Climbing Fort Worth Center
05:56PM 34.0758 -96.0219 34° Northeast 481 554 37,800 1,200 Climbing Fort Worth Center
05:57PM 34.1958 -95.9194 35° Northeast 481 554 39,200 1,140 Climbing Fort Worth Center
05:58PM 34.3094 -95.8219 35° Northeast 493 567 40,100 900 Climbing Fort Worth Center
05:59PM 34.4269 -95.7242 34° Northeast 500 575 41,000 420 Climbing Fort Worth Center
06:00PM 34.5444 -95.6211 36° Northeast 505 581 41,000  Level Fort Worth Center
06:01PM 34.6786 -95.5097 34° Northeast 524 603 41,000  Level Fort Worth Center
06:02PM 34.7958 -95.4058 36° Northeast 529 609 41,000  Level Fort Worth Center
06:03PM 34.9044 -95.2894 41° Northeast 523 602 41,000  Level Fort Worth Center
06:05PM 35.0044 -94.9456 70° East 511 588 41,000  Level Memphis Center
06:06PM 35.0361 -94.7622 78° East 527 606 41,000  Level Memphis Center
06:07PM 35.0681 -94.5583 79° East 552 635 41,000  Level Memphis Center
06:08PM 35.1011 -94.3775 77° East 552 635 41,000  Level Memphis Center
06:09PM 35.1319 -94.1961 78° East 552 635 41,000  Level Memphis Center
06:10PM 35.1603 -94.0144 79° East 547 629 41,000  Level Memphis Center
06:11PM 35.1906 -93.8303 79° East 542 624 41,000  Level Memphis Center
06:12PM 35.2206 -93.6461 79° East 542 624 41,000  Level Memphis Center
06:13PM 35.2503 -93.4667 78° East 542 624 41,000  Level Memphis Center
06:14PM 35.2794 -93.3025 78° East 542 624 41,000  Level Memphis Center
06:15PM 35.3086 -93.1178 79° East 542 624 41,000  Level Memphis Center
06:16PM 35.3375 -92.9328 79° East 549 632 41,000  Level Memphis Center
06:17PM 35.3661 -92.7506 79° East 549 632 41,000  Level Memphis Center
06:18PM 35.3906 -92.5600 81° East 555 639 41,000  Level Memphis Center
06:19PM 35.4186 -92.3775 79° East 555 639 41,000  Level Memphis Center
06:20PM 35.4464 -92.1972 79° East 550 633 41,000  Level Memphis Center
06:21PM 35.4742 -92.0117 80° East 544 626 41,000  Level Memphis Center
06:22PM 35.5014 -91.8286 80° East 544 626 41,000  Level Memphis Center
06:23PM 35.5286 -91.6481 79° East 544 626 41,000  Level Memphis Center
06:24PM 35.5553 -91.4672 80° East 544 626 41,000  Level Memphis Center
06:25PM 35.5861 -91.2683 79° East 539 620 41,000  Level Memphis Center
06:26PM 35.6081 -91.0900 81° East 539 620 41,000  Level Memphis Center
06:27PM 35.6339 -90.9292 79° East 539 620 41,000  Level Memphis Center
06:28PM 35.6575 -90.7531 81° East 528 608 41,000  Level Memphis Center
06:29PM 35.6808 -90.5742 81° East 528 608 41,000  Level Memphis Center
06:30PM 35.6978 -90.3981 83° East 521 600 41,000  Level Memphis Center
06:31PM 35.7206 -90.2164 81° East 521 600 41,000  Level Memphis Center
06:32PM 35.7453 -90.0400 80° East 521 600 41,000  Level Memphis Center
06:33PM 35.7678 -89.8606 81° East 521 600 41,000  Level Memphis Center
06:34PM 35.7897 -89.6814 81° East 521 600 41,000  Level Memphis Center
06:35PM 35.8136 -89.5044 80° East 521 600 41,000  Level Memphis Center
06:36PM 35.8353 -89.3225 82° East 521 600 41,000  Level Memphis Center
06:37PM 35.8564 -89.1431 82° East 526 605 41,000  Level Memphis Center
06:38PM 35.8797 -88.9658 81° East 526 605 41,000  Level Memphis Center
06:39PM 35.9047 -88.7836 80° East 526 605 41,000  Level Memphis Center
06:40PM 35.9253 -88.6089 82° East 526 605 41,000  Level Memphis Center
06:41PM 35.9456 -88.4289 82° East 526 605 41,000  Level Memphis Center
06:42PM 35.9675 -88.2514 81° East 526 605 41,000  Level Memphis Center
06:43PM 35.9894 -88.0789 81° East 516 594 41,000  Level Memphis Center
06:44PM 36.0092 -87.9039 82° East 511 588 41,000  Level Memphis Center
06:45PM 36.0283 -87.7211 83° East 524 603 41,000  Level Memphis Center
06:46PM 36.0472 -87.5306 83° East 524 603 41,000  Level Memphis Center
06:47PM 36.0658 -87.3553 82° East 524 603 41,000  Level Memphis Center
06:48PM 36.0844 -87.1775 83° East 524 603 41,000  Level Memphis Center
06:49PM 36.1047 -87.0019 82° East 524 603 41,000  Level Memphis Center
06:50PM 36.1311 -86.8261 79° East 524 603 41,000  Level Memphis Center
06:51PM 36.1633 -86.6447 78° East 532 612 41,000  Level Memphis Center
06:52PM 36.1933 -86.4686 78° East 527 606 41,000  Level Memphis Center
06:53PM 36.2214 -86.3000 78° East 509 586 41,000  Level Memphis Center
06:54PM 36.2531 -86.1233 77° East 509 586 41,000  Level Memphis Center
06:56PM 36.2956 -85.8422 79° East 516 594 41,000  Level Indianapolis Center
06:57PM 36.3286 -85.6531 78° East 517 595 41,000  Level Indianapolis Center
06:58PM 36.3547 -85.4783 79° East 513 590 41,000  Level Indianapolis Center
06:59PM 36.3822 -85.3075 79° East 505 581 41,000  Level Indianapolis Center
07:00PM 36.4078 -85.1347 80° East 501 577 41,000  Level Indianapolis Center
07:01PM 36.4322 -84.9628 80° East 502 578 41,000  Level Indianapolis Center
07:02PM 36.4575 -84.7967 79° East 488 562 41,000  Level Indianapolis Center
07:03PM 36.4814 -84.6289 80° East 490 564 41,000 -240 Level Indianapolis Center
07:04PM 36.5047 -84.4644 80° East 483 556 40,600 -840 Descending Indianapolis Center
07:05PM 36.5314 -84.2756 80° East 477 549 39,400 -1,080 Descending Indianapolis Center
07:06PM 36.5533 -84.1117 80° East 481 554 38,400 -1,020 Descending Indianapolis Center
07:07PM 36.5769 -83.9458 80° East 486 559 37,400 -1,020 Descending Indianapolis Center
07:08PM 36.6028 -83.7803 79° East 488 562 36,400 -1,020 Descending Indianapolis Center
07:09PM 36.6258 -83.6139 80° East 487 560 35,400 -720 Descending Indianapolis Center
07:10PM 36.6475 -83.4475 81° East 488 562 35,000 -240 Descending Indianapolis Center
07:11PM 36.6706 -83.2753 80° East 502 578 35,000 -120 Level Indianapolis Center
07:12PM 36.6936 -83.1072 80° East 497 572 34,800 -1,380 Descending Indianapolis Center
07:13PM 36.7117 -82.9425 82° East 487 560 32,300 -2,220 Descending Indianapolis Center
07:14PM 36.6803 -82.7406 101° East 519 597 30,400 -1,740 Descending Indianapolis Center
07:15PM 36.6383 -82.5772 108° East 503 579 28,800 -1,560 Descending Indianapolis Center
07:16PM 36.6006 -82.4356 108° East 490 564 27,500 -1,560 Descending Atlanta Center
07:17PM 36.5608 -82.2811 108° East 474 545 25,900 -1,680 Descending Atlanta Center
07:18PM 36.5211 -82.1297 108° East 464 534 24,200 -1,680 Descending Atlanta Center
07:19PM 36.4833 -81.9833 108° East 454 522 22,600 -1,560 Descending Atlanta Center
07:20PM 36.4517 -81.8525 107° East 448 516 21,100 -1,560 Descending Atlanta Center
07:21PM 36.4117 -81.7117 109° East 434 499 19,500 -1,620 Descending Atlanta Center
07:22PM 36.3775 -81.5708 107° East 423 487 17,900 -1,320 Descending Atlanta Center
07:23PM 36.3372 -81.4306 110° East 409 471 16,900 -1,200 Descending Atlanta Center
07:24PM 36.3031 -81.3028 108° East 401 461 15,600 -1,320 Descending Atlanta Center
07:25PM 36.2689 -81.1778 109° East 386 444 14,300 -1,260 Descending Atlanta Center
07:26PM 36.2347 -81.0553 109° East 380 437 13,100 -1,200 Descending Atlanta Center
07:27PM 36.2006 -80.9331 109° East 380 437 11,900 -1,020 Descending Atlanta Center
07:28PM 36.1703 -80.8133 107° East 380 437 11,100 -540 Descending Atlanta Center
07:29PM 36.1381 -80.7017 110° East 360 414 10,900 -120 Descending Atlanta Center
07:30PM 36.1228 -80.5994 100° East 344 396 10,900 -720 Level Atlanta Center
07:31PM 36.0925 -80.4903 109° East 317 365 9,500 -1,740 Descending Atlanta Center
07:32PM 36.0625 -80.3964 112° Southeast 306 352 7,500 -1,920 Descending Atlanta Center
07:33PM 36.0372 -80.3153 111° Southeast 287 330 5,700 -1,980 Descending Atlanta Center
07:34PM 36.0097 -80.2294 112° Southeast 275 316 3,600 -1,440 Descending Atlanta Center
07:35PM 35.9781 -80.1564 118° Southeast 261 300 2,900 -360 Descending Atlanta Center
07:36PM 35.9742 -80.0950 94° East 198 228 2,900  Level Atlanta Center
07:37PM 36.0039 -80.0500 51° Northeast 150 173 3,000 60 Climbing Atlanta Center
07:39PM 36.1000 -79.9333 15° North  Level FlightAware Approximate
07:46PM 36.1013 -79.9411 15° North  Level Estimated
07:47PM 36.1000 -79.9333 15° North  Level FlightAware Approximate
07:48PM 36.1013 -79.9411 15° North  Level Estimated
07:49PM 36.1000 -79.9333 15° North  Level FlightAware Approximate